sensor_id;sensor_type;location;lat;lon;timestamp;P1;durP1;ratioP1;P2;durP2;ratioP2
22814;SDS011;11574;51.058;13.712;2023-01-23T00:04:45;20.40;;;11.37;;
22814;SDS011;11574;51.058;13.712;2023-01-23T00:09:48;20.83;;;11.10;;
22814;SDS011;11574;51.058;13.712;2023-01-23T00:14:50;21.20;;;10.80;;
22814;SDS011;11574;51.058;13.712;2023-01-23T00:19:54;24.40;;;12.23;;
22814;SDS011;11574;51.058;13.712;2023-01-23T00:24:57;21.90;;;10.83;;
22814;SDS011;11574;51.058;13.712;2023-01-23T00:29:59;23.97;;;11.53;;
22814;SDS011;11574;51.058;13.712;2023-01-23T00:35:03;22.10;;;10.83;;
22814;SDS011;11574;51.058;13.712;2023-01-23T00:40:06;21.83;;;10.47;;
22814;SDS011;11574;51.058;13.712;2023-01-23T00:45:08;26.50;;;11.33;;
22814;SDS011;11574;51.058;13.712;2023-01-23T00:50:12;23.80;;;10.77;;
22814;SDS011;11574;51.058;13.712;2023-01-23T00:55:14;22.37;;;11.20;;
22814;SDS011;11574;51.058;13.712;2023-01-23T01:00:17;24.00;;;11.60;;
22814;SDS011;11574;51.058;13.712;2023-01-23T01:05:20;23.67;;;11.63;;
22814;SDS011;11574;51.058;13.712;2023-01-23T01:10:22;21.93;;;11.33;;
22814;SDS011;11574;51.058;13.712;2023-01-23T01:15:28;20.80;;;10.60;;
22814;SDS011;11574;51.058;13.712;2023-01-23T01:20:31;22.60;;;10.70;;
22814;SDS011;11574;51.058;13.712;2023-01-23T01:25:34;23.73;;;11.60;;
22814;SDS011;11574;51.058;13.712;2023-01-23T01:30:36;25.00;;;10.87;;
22814;SDS011;11574;51.058;13.712;2023-01-23T01:35:40;24.60;;;10.50;;
22814;SDS011;11574;51.058;13.712;2023-01-23T01:40:42;22.90;;;10.63;;
22814;SDS011;11574;51.058;13.712;2023-01-23T01:51:07;20.13;;;11.07;;
22814;SDS011;11574;51.058;13.712;2023-01-23T01:56:10;21.83;;;11.30;;
22814;SDS011;11574;51.058;13.712;2023-01-23T02:01:13;21.67;;;10.43;;
22814;SDS011;11574;51.058;13.712;2023-01-23T02:06:17;18.87;;;10.23;;
22814;SDS011;11574;51.058;13.712;2023-01-23T02:11:19;20.80;;;10.93;;
22814;SDS011;11574;51.058;13.712;2023-01-23T02:16:22;19.47;;;10.30;;
22814;SDS011;11574;51.058;13.712;2023-01-23T02:21:27;19.03;;;10.13;;
22814;SDS011;11574;51.058;13.712;2023-01-23T02:26:31;21.73;;;11.50;;
22814;SDS011;11574;51.058;13.712;2023-01-23T02:31:35;17.97;;;9.77;;
22814;SDS011;11574;51.058;13.712;2023-01-23T02:36:38;22.43;;;11.63;;
22814;SDS011;11574;51.058;13.712;2023-01-23T02:41:44;20.53;;;10.43;;
22814;SDS011;11574;51.058;13.712;2023-01-23T02:46:46;19.90;;;10.67;;
22814;SDS011;11574;51.058;13.712;2023-01-23T02:51:48;22.60;;;10.30;;
22814;SDS011;11574;51.058;13.712;2023-01-23T02:56:52;19.43;;;10.40;;
22814;SDS011;11574;51.058;13.712;2023-01-23T03:01:56;19.60;;;10.13;;
22814;SDS011;11574;51.058;13.712;2023-01-23T03:06:58;20.47;;;9.80;;
22814;SDS011;11574;51.058;13.712;2023-01-23T03:12:02;19.67;;;10.33;;
22814;SDS011;11574;51.058;13.712;2023-01-23T03:17:04;19.00;;;10.37;;
22814;SDS011;11574;51.058;13.712;2023-01-23T03:22:06;17.90;;;10.03;;
22814;SDS011;11574;51.058;13.712;2023-01-23T03:27:10;18.80;;;10.20;;
22814;SDS011;11574;51.058;13.712;2023-01-23T03:32:12;23.00;;;11.27;;
22814;SDS011;11574;51.058;13.712;2023-01-23T03:37:14;20.80;;;10.60;;
22814;SDS011;11574;51.058;13.712;2023-01-23T03:42:20;23.40;;;11.00;;
22814;SDS011;11574;51.058;13.712;2023-01-23T03:47:22;22.93;;;11.53;;
22814;SDS011;11574;51.058;13.712;2023-01-23T03:52:25;20.17;;;10.57;;
22814;SDS011;11574;51.058;13.712;2023-01-23T03:57:28;20.07;;;10.17;;
22814;SDS011;11574;51.058;13.712;2023-01-23T04:02:30;17.87;;;9.53;;
22814;SDS011;11574;51.058;13.712;2023-01-23T04:07:33;20.47;;;10.27;;
22814;SDS011;11574;51.058;13.712;2023-01-23T04:12:36;18.27;;;10.33;;
22814;SDS011;11574;51.058;13.712;2023-01-23T04:17:38;19.83;;;9.97;;
22814;SDS011;11574;51.058;13.712;2023-01-23T04:22:41;19.40;;;10.13;;
22814;SDS011;11574;51.058;13.712;2023-01-23T04:27:44;19.17;;;9.77;;
22814;SDS011;11574;51.058;13.712;2023-01-23T04:32:46;18.00;;;9.77;;
22814;SDS011;11574;51.058;13.712;2023-01-23T04:37:48;19.77;;;10.27;;
22814;SDS011;11574;51.058;13.712;2023-01-23T04:42:52;20.43;;;10.10;;
22814;SDS011;11574;51.058;13.712;2023-01-23T04:47:54;21.10;;;11.50;;
22814;SDS011;11574;51.058;13.712;2023-01-23T04:52:56;25.87;;;11.90;;
22814;SDS011;11574;51.058;13.712;2023-01-23T04:58:00;24.93;;;11.37;;
22814;SDS011;11574;51.058;13.712;2023-01-23T05:03:02;23.37;;;10.67;;
22814;SDS011;11574;51.058;13.712;2023-01-23T05:08:05;21.47;;;11.20;;
22814;SDS011;11574;51.058;13.712;2023-01-23T05:13:08;21.33;;;10.87;;
22814;SDS011;11574;51.058;13.712;2023-01-23T05:18:10;21.87;;;11.13;;
22814;SDS011;11574;51.058;13.712;2023-01-23T05:23:13;20.17;;;10.87;;
22814;SDS011;11574;51.058;13.712;2023-01-23T05:28:16;21.47;;;11.20;;
22814;SDS011;11574;51.058;13.712;2023-01-23T05:33:18;20.47;;;10.87;;
22814;SDS011;11574;51.058;13.712;2023-01-23T05:38:20;21.47;;;10.97;;
22814;SDS011;11574;51.058;13.712;2023-01-23T05:43:24;22.90;;;11.67;;
22814;SDS011;11574;51.058;13.712;2023-01-23T05:48:26;20.60;;;10.43;;
22814;SDS011;11574;51.058;13.712;2023-01-23T05:53:29;23.03;;;10.83;;
22814;SDS011;11574;51.058;13.712;2023-01-23T05:58:33;23.53;;;12.47;;
22814;SDS011;11574;51.058;13.712;2023-01-23T06:03:35;21.77;;;11.43;;
22814;SDS011;11574;51.058;13.712;2023-01-23T06:08:37;26.43;;;13.07;;
22814;SDS011;11574;51.058;13.712;2023-01-23T06:13:41;27.23;;;13.10;;
22814;SDS011;11574;51.058;13.712;2023-01-23T06:18:43;27.20;;;12.63;;
22814;SDS011;11574;51.058;13.712;2023-01-23T06:23:45;27.23;;;15.73;;
22814;SDS011;11574;51.058;13.712;2023-01-23T06:28:48;25.97;;;13.97;;
22814;SDS011;11574;51.058;13.712;2023-01-23T06:33:51;39.63;;;15.40;;
22814;SDS011;11574;51.058;13.712;2023-01-23T06:38:53;32.20;;;14.70;;
22814;SDS011;11574;51.058;13.712;2023-01-23T06:43:56;32.77;;;14.23;;
22814;SDS011;11574;51.058;13.712;2023-01-23T06:48:58;28.13;;;13.07;;
22814;SDS011;11574;51.058;13.712;2023-01-23T06:54:01;28.00;;;12.80;;
22814;SDS011;11574;51.058;13.712;2023-01-23T06:59:04;29.30;;;14.33;;
22814;SDS011;11574;51.058;13.712;2023-01-23T07:04:07;28.90;;;14.47;;
22814;SDS011;11574;51.058;13.712;2023-01-23T07:09:09;28.30;;;14.03;;
22814;SDS011;11574;51.058;13.712;2023-01-23T07:14:13;28.17;;;13.90;;
22814;SDS011;11574;51.058;13.712;2023-01-23T07:19:15;31.67;;;14.07;;
22814;SDS011;11574;51.058;13.712;2023-01-23T07:24:17;29.63;;;13.93;;
22814;SDS011;11574;51.058;13.712;2023-01-23T07:29:21;33.23;;;15.23;;
22814;SDS011;11574;51.058;13.712;2023-01-23T07:34:23;30.70;;;14.77;;
22814;SDS011;11574;51.058;13.712;2023-01-23T07:39:25;35.87;;;14.77;;
22814;SDS011;11574;51.058;13.712;2023-01-23T07:44:29;28.53;;;13.87;;
22814;SDS011;11574;51.058;13.712;2023-01-23T07:49:32;27.10;;;12.87;;
22814;SDS011;11574;51.058;13.712;2023-01-23T07:54:34;31.23;;;14.63;;
22814;SDS011;11574;51.058;13.712;2023-01-23T07:59:38;31.40;;;14.13;;
22814;SDS011;11574;51.058;13.712;2023-01-23T08:04:40;31.67;;;15.73;;
22814;SDS011;11574;51.058;13.712;2023-01-23T08:09:43;33.13;;;14.83;;
22814;SDS011;11574;51.058;13.712;2023-01-23T08:14:47;30.73;;;15.13;;
22814;SDS011;11574;51.058;13.712;2023-01-23T08:19:49;30.60;;;15.27;;
22814;SDS011;11574;51.058;13.712;2023-01-23T08:24:51;29.40;;;14.77;;
22814;SDS011;11574;51.058;13.712;2023-01-23T08:29:55;30.03;;;14.33;;
22814;SDS011;11574;51.058;13.712;2023-01-23T08:34:57;31.33;;;16.07;;
22814;SDS011;11574;51.058;13.712;2023-01-23T08:39:59;30.53;;;13.97;;
22814;SDS011;11574;51.058;13.712;2023-01-23T08:45:03;24.57;;;13.53;;
22814;SDS011;11574;51.058;13.712;2023-01-23T08:50:06;30.63;;;15.30;;
22814;SDS011;11574;51.058;13.712;2023-01-23T08:55:09;28.10;;;15.20;;
22814;SDS011;11574;51.058;13.712;2023-01-23T09:00:13;31.73;;;14.67;;
22814;SDS011;11574;51.058;13.712;2023-01-23T09:05:15;29.10;;;15.57;;
22814;SDS011;11574;51.058;13.712;2023-01-23T09:10:18;31.00;;;14.83;;
22814;SDS011;11574;51.058;13.712;2023-01-23T09:15:21;33.93;;;15.93;;
22814;SDS011;11574;51.058;13.712;2023-01-23T09:20:23;37.47;;;15.37;;
22814;SDS011;11574;51.058;13.712;2023-01-23T09:25:28;34.07;;;15.80;;
22814;SDS011;11574;51.058;13.712;2023-01-23T09:30:32;35.33;;;14.87;;
22814;SDS011;11574;51.058;13.712;2023-01-23T09:35:34;33.27;;;15.27;;
22814;SDS011;11574;51.058;13.712;2023-01-23T09:40:37;34.23;;;15.23;;
22814;SDS011;11574;51.058;13.712;2023-01-23T09:45:46;30.17;;;13.80;;
22814;SDS011;11574;51.058;13.712;2023-01-23T09:50:52;28.83;;;14.30;;
22814;SDS011;11574;51.058;13.712;2023-01-23T09:55:56;33.57;;;15.97;;
22814;SDS011;11574;51.058;13.712;2023-01-23T10:01:01;33.50;;;14.47;;
22814;SDS011;11574;51.058;13.712;2023-01-23T10:06:07;31.50;;;15.77;;
22814;SDS011;11574;51.058;13.712;2023-01-23T10:11:15;33.43;;;14.80;;
22814;SDS011;11574;51.058;13.712;2023-01-23T10:16:23;32.90;;;15.50;;
22814;SDS011;11574;51.058;13.712;2023-01-23T10:21:28;33.80;;;16.37;;
22814;SDS011;11574;51.058;13.712;2023-01-23T10:26:40;31.03;;;14.87;;
22814;SDS011;11574;51.058;13.712;2023-01-23T10:31:45;30.93;;;14.73;;
22814;SDS011;11574;51.058;13.712;2023-01-23T10:36:54;29.00;;;13.90;;
22814;SDS011;11574;51.058;13.712;2023-01-23T10:42:00;26.83;;;13.93;;
22814;SDS011;11574;51.058;13.712;2023-01-23T10:47:05;30.07;;;14.70;;
22814;SDS011;11574;51.058;13.712;2023-01-23T10:52:32;27.63;;;13.97;;
22814;SDS011;11574;51.058;13.712;2023-01-23T10:57:37;29.50;;;13.63;;
22814;SDS011;11574;51.058;13.712;2023-01-23T11:02:46;29.90;;;14.53;;
22814;SDS011;11574;51.058;13.712;2023-01-23T11:07:52;27.20;;;14.07;;
22814;SDS011;11574;51.058;13.712;2023-01-23T11:12:54;27.37;;;13.90;;
22814;SDS011;11574;51.058;13.712;2023-01-23T11:17:59;26.23;;;13.80;;
22814;SDS011;11574;51.058;13.712;2023-01-23T11:23:03;30.43;;;14.90;;
22814;SDS011;11574;51.058;13.712;2023-01-23T11:28:19;29.80;;;14.37;;
22814;SDS011;11574;51.058;13.712;2023-01-23T11:33:32;29.67;;;14.03;;
22814;SDS011;11574;51.058;13.712;2023-01-23T11:38:35;29.03;;;14.57;;
22814;SDS011;11574;51.058;13.712;2023-01-23T11:43:39;33.87;;;14.90;;
22814;SDS011;11574;51.058;13.712;2023-01-23T11:48:47;31.73;;;14.83;;
22814;SDS011;11574;51.058;13.712;2023-01-23T11:53:58;27.57;;;14.30;;
22814;SDS011;11574;51.058;13.712;2023-01-23T11:59:09;33.83;;;15.57;;
22814;SDS011;11574;51.058;13.712;2023-01-23T12:04:29;31.67;;;15.77;;
22814;SDS011;11574;51.058;13.712;2023-01-23T12:09:36;31.73;;;15.63;;
22814;SDS011;11574;51.058;13.712;2023-01-23T12:14:41;31.67;;;15.77;;
22814;SDS011;11574;51.058;13.712;2023-01-23T12:19:54;32.00;;;15.70;;
22814;SDS011;11574;51.058;13.712;2023-01-23T12:25:03;35.47;;;17.03;;
22814;SDS011;11574;51.058;13.712;2023-01-23T12:30:18;34.23;;;15.73;;
22814;SDS011;11574;51.058;13.712;2023-01-23T12:35:31;34.63;;;15.97;;
22814;SDS011;11574;51.058;13.712;2023-01-23T12:40:35;36.60;;;17.03;;
22814;SDS011;11574;51.058;13.712;2023-01-23T12:45:39;35.60;;;16.13;;
22814;SDS011;11574;51.058;13.712;2023-01-23T12:50:47;34.33;;;15.80;;
22814;SDS011;11574;51.058;13.712;2023-01-23T12:55:53;38.03;;;16.37;;
22814;SDS011;11574;51.058;13.712;2023-01-23T13:01:02;35.70;;;16.87;;
22814;SDS011;11574;51.058;13.712;2023-01-23T13:06:12;34.57;;;17.50;;
22814;SDS011;11574;51.058;13.712;2023-01-23T13:11:22;34.27;;;16.60;;
22814;SDS011;11574;51.058;13.712;2023-01-23T13:16:44;34.13;;;17.53;;
22814;SDS011;11574;51.058;13.712;2023-01-23T13:32:38;36.37;;;17.80;;
22814;SDS011;11574;51.058;13.712;2023-01-23T13:42:51;41.20;;;19.43;;
22814;SDS011;11574;51.058;13.712;2023-01-23T13:53:32;49.83;;;22.07;;
22814;SDS011;11574;51.058;13.712;2023-01-23T13:58:52;50.33;;;21.73;;
22814;SDS011;11574;51.058;13.712;2023-01-23T14:03:57;46.57;;;21.33;;
22814;SDS011;11574;51.058;13.712;2023-01-23T14:09:20;49.07;;;21.57;;
22814;SDS011;11574;51.058;13.712;2023-01-23T14:14:23;55.03;;;22.87;;
22814;SDS011;11574;51.058;13.712;2023-01-23T14:19:47;53.93;;;23.47;;
22814;SDS011;11574;51.058;13.712;2023-01-23T14:24:54;51.70;;;23.53;;
22814;SDS011;11574;51.058;13.712;2023-01-23T14:29:56;56.57;;;23.43;;
22814;SDS011;11574;51.058;13.712;2023-01-23T14:34:59;53.80;;;22.83;;
22814;SDS011;11574;51.058;13.712;2023-01-23T14:40:03;61.37;;;24.83;;
22814;SDS011;11574;51.058;13.712;2023-01-23T14:45:07;53.87;;;22.77;;
22814;SDS011;11574;51.058;13.712;2023-01-23T14:50:15;54.23;;;24.20;;
22814;SDS011;11574;51.058;13.712;2023-01-23T14:55:21;55.40;;;25.07;;
22814;SDS011;11574;51.058;13.712;2023-01-23T15:00:24;55.47;;;23.50;;
22814;SDS011;11574;51.058;13.712;2023-01-23T15:05:26;57.67;;;29.67;;
22814;SDS011;11574;51.058;13.712;2023-01-23T15:10:31;58.10;;;23.63;;
22814;SDS011;11574;51.058;13.712;2023-01-23T15:15:33;52.27;;;23.80;;
22814;SDS011;11574;51.058;13.712;2023-01-23T15:20:36;56.10;;;24.23;;
22814;SDS011;11574;51.058;13.712;2023-01-23T15:25:43;53.43;;;24.33;;
22814;SDS011;11574;51.058;13.712;2023-01-23T15:30:45;62.27;;;24.10;;
22814;SDS011;11574;51.058;13.712;2023-01-23T15:35:48;63.20;;;24.67;;
22814;SDS011;11574;51.058;13.712;2023-01-23T15:40:51;61.00;;;24.17;;
22814;SDS011;11574;51.058;13.712;2023-01-23T15:45:53;62.70;;;25.67;;
22814;SDS011;11574;51.058;13.712;2023-01-23T15:50:56;56.17;;;23.20;;
22814;SDS011;11574;51.058;13.712;2023-01-23T15:55:59;55.10;;;23.43;;
22814;SDS011;11574;51.058;13.712;2023-01-23T16:01:05;59.67;;;24.17;;
22814;SDS011;11574;51.058;13.712;2023-01-23T16:06:14;59.33;;;24.10;;
22814;SDS011;11574;51.058;13.712;2023-01-23T16:11:18;61.77;;;24.93;;
22814;SDS011;11574;51.058;13.712;2023-01-23T16:16:20;72.03;;;28.50;;
22814;SDS011;11574;51.058;13.712;2023-01-23T16:21:26;78.77;;;32.47;;
22814;SDS011;11574;51.058;13.712;2023-01-23T16:26:31;56.03;;;24.73;;
22814;SDS011;11574;51.058;13.712;2023-01-23T16:31:34;58.63;;;25.27;;
22814;SDS011;11574;51.058;13.712;2023-01-23T16:36:38;68.30;;;25.47;;
22814;SDS011;11574;51.058;13.712;2023-01-23T16:41:42;67.20;;;25.27;;
22814;SDS011;11574;51.058;13.712;2023-01-23T16:46:44;60.27;;;24.60;;
22814;SDS011;11574;51.058;13.712;2023-01-23T16:51:47;56.57;;;23.53;;
22814;SDS011;11574;51.058;13.712;2023-01-23T16:56:54;66.83;;;25.87;;
22814;SDS011;11574;51.058;13.712;2023-01-23T17:01:56;57.33;;;25.50;;
22814;SDS011;11574;51.058;13.712;2023-01-23T17:07:00;56.53;;;22.93;;
22814;SDS011;11574;51.058;13.712;2023-01-23T17:12:04;50.27;;;22.23;;
22814;SDS011;11574;51.058;13.712;2023-01-23T17:17:09;51.53;;;21.50;;
22814;SDS011;11574;51.058;13.712;2023-01-23T17:22:16;50.87;;;22.00;;
22814;SDS011;11574;51.058;13.712;2023-01-23T17:27:20;50.53;;;22.47;;
22814;SDS011;11574;51.058;13.712;2023-01-23T17:32:25;48.57;;;22.47;;
22814;SDS011;11574;51.058;13.712;2023-01-23T17:37:28;51.13;;;22.20;;
22814;SDS011;11574;51.058;13.712;2023-01-23T17:42:32;48.07;;;22.50;;
22814;SDS011;11574;51.058;13.712;2023-01-23T17:47:34;48.83;;;22.40;;
22814;SDS011;11574;51.058;13.712;2023-01-23T17:52:37;46.63;;;21.17;;
22814;SDS011;11574;51.058;13.712;2023-01-23T17:57:40;46.77;;;20.73;;
22814;SDS011;11574;51.058;13.712;2023-01-23T18:02:43;40.67;;;19.73;;
22814;SDS011;11574;51.058;13.712;2023-01-23T18:07:46;46.60;;;21.50;;
22814;SDS011;11574;51.058;13.712;2023-01-23T18:12:51;46.13;;;21.17;;
22814;SDS011;11574;51.058;13.712;2023-01-23T18:18:03;46.00;;;20.90;;
22814;SDS011;11574;51.058;13.712;2023-01-23T18:23:11;44.45;;;20.20;;
22814;SDS011;11574;51.058;13.712;2023-01-23T18:28:16;46.80;;;21.77;;
22814;SDS011;11574;51.058;13.712;2023-01-23T18:33:32;46.67;;;21.67;;
22814;SDS011;11574;51.058;13.712;2023-01-23T18:38:42;44.47;;;20.17;;
22814;SDS011;11574;51.058;13.712;2023-01-23T18:43:48;46.77;;;21.30;;
22814;SDS011;11574;51.058;13.712;2023-01-23T18:48:53;43.97;;;20.43;;
22814;SDS011;11574;51.058;13.712;2023-01-23T18:53:58;46.37;;;20.60;;
22814;SDS011;11574;51.058;13.712;2023-01-23T18:59:09;43.00;;;20.97;;
22814;SDS011;11574;51.058;13.712;2023-01-23T19:04:14;47.57;;;21.80;;
22814;SDS011;11574;51.058;13.712;2023-01-23T19:09:17;44.30;;;20.33;;
22814;SDS011;11574;51.058;13.712;2023-01-23T19:14:23;44.57;;;20.87;;
22814;SDS011;11574;51.058;13.712;2023-01-23T19:19:33;48.90;;;22.33;;
22814;SDS011;11574;51.058;13.712;2023-01-23T19:24:39;47.90;;;22.27;;
22814;SDS011;11574;51.058;13.712;2023-01-23T19:29:43;44.23;;;21.37;;
22814;SDS011;11574;51.058;13.712;2023-01-23T19:34:45;46.08;;;27.00;;
22814;SDS011;11574;51.058;13.712;2023-01-23T19:39:47;44.47;;;22.73;;
22814;SDS011;11574;51.058;13.712;2023-01-23T19:44:51;46.50;;;21.43;;
22814;SDS011;11574;51.058;13.712;2023-01-23T19:49:54;47.93;;;21.57;;
22814;SDS011;11574;51.058;13.712;2023-01-23T19:54:56;45.00;;;22.77;;
22814;SDS011;11574;51.058;13.712;2023-01-23T19:59:59;43.17;;;20.87;;
22814;SDS011;11574;51.058;13.712;2023-01-23T20:05:02;46.43;;;21.27;;
22814;SDS011;11574;51.058;13.712;2023-01-23T20:10:05;44.67;;;21.70;;
22814;SDS011;11574;51.058;13.712;2023-01-23T20:15:09;43.90;;;22.13;;
22814;SDS011;11574;51.058;13.712;2023-01-23T20:20:12;47.93;;;22.60;;
22814;SDS011;11574;51.058;13.712;2023-01-23T20:25:15;52.17;;;23.30;;
22814;SDS011;11574;51.058;13.712;2023-01-23T20:30:19;52.23;;;22.60;;
22814;SDS011;11574;51.058;13.712;2023-01-23T20:35:21;49.23;;;22.77;;
22814;SDS011;11574;51.058;13.712;2023-01-23T20:40:23;58.17;;;25.67;;
22814;SDS011;11574;51.058;13.712;2023-01-23T20:45:28;54.47;;;24.40;;
22814;SDS011;11574;51.058;13.712;2023-01-23T20:50:30;54.57;;;24.70;;
22814;SDS011;11574;51.058;13.712;2023-01-23T20:55:32;57.23;;;25.03;;
22814;SDS011;11574;51.058;13.712;2023-01-23T21:00:36;61.83;;;23.97;;
22814;SDS011;11574;51.058;13.712;2023-01-23T21:05:38;57.70;;;24.60;;
22814;SDS011;11574;51.058;13.712;2023-01-23T21:10:41;57.67;;;25.47;;
22814;SDS011;11574;51.058;13.712;2023-01-23T21:15:48;57.63;;;24.83;;
22814;SDS011;11574;51.058;13.712;2023-01-23T21:21:00;60.83;;;25.33;;
22814;SDS011;11574;51.058;13.712;2023-01-23T21:26:03;54.03;;;23.63;;
22814;SDS011;11574;51.058;13.712;2023-01-23T21:31:09;58.23;;;25.30;;
22814;SDS011;11574;51.058;13.712;2023-01-23T21:36:12;54.43;;;23.63;;
22814;SDS011;11574;51.058;13.712;2023-01-23T21:41:15;59.67;;;25.80;;
22814;SDS011;11574;51.058;13.712;2023-01-23T21:46:18;63.23;;;25.23;;
22814;SDS011;11574;51.058;13.712;2023-01-23T21:51:21;63.77;;;27.93;;
22814;SDS011;11574;51.058;13.712;2023-01-23T21:56:26;57.53;;;24.97;;
22814;SDS011;11574;51.058;13.712;2023-01-23T22:01:30;60.90;;;24.33;;
22814;SDS011;11574;51.058;13.712;2023-01-23T22:06:34;63.23;;;24.30;;
22814;SDS011;11574;51.058;13.712;2023-01-23T22:11:37;63.27;;;25.83;;
22814;SDS011;11574;51.058;13.712;2023-01-23T22:16:40;62.73;;;26.67;;
22814;SDS011;11574;51.058;13.712;2023-01-23T22:21:42;67.50;;;26.77;;
22814;SDS011;11574;51.058;13.712;2023-01-23T22:26:45;66.57;;;26.73;;
22814;SDS011;11574;51.058;13.712;2023-01-23T22:31:48;58.93;;;24.90;;
22814;SDS011;11574;51.058;13.712;2023-01-23T22:36:51;67.53;;;26.93;;
22814;SDS011;11574;51.058;13.712;2023-01-23T22:41:53;67.57;;;27.03;;
22814;SDS011;11574;51.058;13.712;2023-01-23T22:46:58;65.77;;;27.40;;
22814;SDS011;11574;51.058;13.712;2023-01-23T22:52:00;68.27;;;28.57;;
22814;SDS011;11574;51.058;13.712;2023-01-23T22:57:02;74.03;;;27.63;;
22814;SDS011;11574;51.058;13.712;2023-01-23T23:02:05;74.50;;;28.80;;
22814;SDS011;11574;51.058;13.712;2023-01-23T23:07:08;65.90;;;28.23;;
22814;SDS011;11574;51.058;13.712;2023-01-23T23:12:11;57.70;;;26.37;;
22814;SDS011;11574;51.058;13.712;2023-01-23T23:17:15;69.60;;;26.87;;
22814;SDS011;11574;51.058;13.712;2023-01-23T23:22:17;62.83;;;27.13;;
22814;SDS011;11574;51.058;13.712;2023-01-23T23:27:19;63.17;;;27.80;;
22814;SDS011;11574;51.058;13.712;2023-01-23T23:32:22;65.40;;;26.27;;
22814;SDS011;11574;51.058;13.712;2023-01-23T23:37:25;72.23;;;28.57;;
22814;SDS011;11574;51.058;13.712;2023-01-23T23:42:27;66.87;;;28.07;;
22814;SDS011;11574;51.058;13.712;2023-01-23T23:47:30;67.03;;;28.03;;
22814;SDS011;11574;51.058;13.712;2023-01-23T23:52:32;63.17;;;26.43;;
22814;SDS011;11574;51.058;13.712;2023-01-23T23:57:35;67.47;;;27.63;;
